createdAt,value
2018-12-01T00:00:17.169Z,1.50
2018-12-01T00:01:17.134Z,1.10
2018-12-01T00:02:17.101Z,1.40
2018-12-01T00:03:17.065Z,1.80
2018-12-01T00:04:17.080Z,1.50
2018-12-01T00:05:17.212Z,1.20
2018-12-01T00:06:16.975Z,1.60
2018-12-01T00:08:17.172Z,0.70
2018-12-01T00:09:16.882Z,1.70
2018-12-01T00:10:16.846Z,1.60
2018-12-01T00:11:16.826Z,1.70
2018-12-01T00:12:16.836Z,1.90
2018-12-01T00:13:16.749Z,1.50
2018-12-01T00:14:16.726Z,1.80
2018-12-01T00:15:16.691Z,1.70
2018-12-01T00:16:16.673Z,2.00
2018-12-01T00:17:16.627Z,1.30
2018-12-01T00:18:16.586Z,1.90
2018-12-01T00:19:16.765Z,1.80
2018-12-01T00:20:16.531Z,1.50
2018-12-01T00:21:16.508Z,1.60
2018-12-01T00:22:16.867Z,1.50
2018-12-01T00:23:16.432Z,1.40
2018-12-01T00:24:16.398Z,1.30
2018-12-01T00:25:16.404Z,1.10
2018-12-01T00:26:16.345Z,2.80
2018-12-01T00:27:16.309Z,1.80
2018-12-01T00:28:16.691Z,1.90
2018-12-01T00:29:16.335Z,1.80
2018-12-01T00:30:16.236Z,1.60
2018-12-01T00:31:16.189Z,1.50
2018-12-01T00:32:16.164Z,1.50
2018-12-01T00:33:16.123Z,1.30
2018-12-01T00:34:16.285Z,1.20
2018-12-01T00:35:16.216Z,1.70
2018-12-01T00:36:16.013Z,1.50
2018-12-01T00:37:15.982Z,1.30
2018-12-01T00:38:15.955Z,1.70
2018-12-01T00:39:15.944Z,1.30
2018-12-01T00:40:15.921Z,1.60
2018-12-01T00:41:15.900Z,1.20
2018-12-01T00:42:15.826Z,1.30
2018-12-01T00:43:15.807Z,1.50
2018-12-01T00:44:15.762Z,1.80
2018-12-01T00:45:15.739Z,1.40
2018-12-01T00:46:15.697Z,1.40
2018-12-01T00:47:15.705Z,1.90
2018-12-01T00:48:15.633Z,1.40
2018-12-01T00:49:15.632Z,1.30
2018-12-01T00:50:15.868Z,1.60
2018-12-01T00:51:15.541Z,1.30
2018-12-01T00:52:15.515Z,2.00
2018-12-01T00:53:15.473Z,1.80
2018-12-01T00:54:15.447Z,1.70
2018-12-01T00:55:15.426Z,1.50
2018-12-01T00:56:15.582Z,2.00
2018-12-01T00:57:15.358Z,1.50
2018-12-01T00:58:15.359Z,1.20
2018-12-01T00:59:15.310Z,1.60
2018-12-01T01:00:15.250Z,2.10
2018-12-01T01:01:15.225Z,1.20
2018-12-01T01:02:15.603Z,1.50
2018-12-01T01:03:15.155Z,1.40
2018-12-01T01:04:15.126Z,1.60
2018-12-01T01:05:15.113Z,1.80
2018-12-01T01:06:15.062Z,1.20
2018-12-01T01:07:15.039Z,1.40
2018-12-01T01:08:15.404Z,1.80
2018-12-01T01:09:15.001Z,1.80
2018-12-01T01:10:14.942Z,1.20
2018-12-01T01:11:14.908Z,1.40
2018-12-01T01:12:14.876Z,1.40
2018-12-01T01:13:14.846Z,1.50
2018-12-01T01:14:14.799Z,1.80
2018-12-01T01:15:14.802Z,2.00
2018-12-01T01:16:14.773Z,1.60
2018-12-01T01:17:14.705Z,1.50
2018-12-01T01:18:14.686Z,1.40
2018-12-01T01:19:14.659Z,1.70
2018-12-01T01:20:14.637Z,2.00
2018-12-01T01:21:14.584Z,1.10
2018-12-01T01:22:14.546Z,1.20
2018-12-01T01:23:14.582Z,1.70
2018-12-01T01:24:14.735Z,1.80
2018-12-01T01:25:14.477Z,1.40
2018-12-01T01:26:14.434Z,1.10
2018-12-01T01:27:14.412Z,1.50
2018-12-01T01:28:14.355Z,1.60
2018-12-01T01:29:14.335Z,1.70
2018-12-01T01:30:14.492Z,1.50
2018-12-01T01:31:14.258Z,1.40
2018-12-01T01:32:14.230Z,1.90
2018-12-01T01:33:14.199Z,1.40
2018-12-01T01:34:14.162Z,1.50
2018-12-01T01:35:14.134Z,1.60
2018-12-01T01:36:14.131Z,1.70
2018-12-01T01:37:14.062Z,1.80
2018-12-01T01:38:14.032Z,1.20
2018-12-01T01:39:14.004Z,1.40
2018-12-01T01:41:13.999Z,0.50
2018-12-01T01:42:13.921Z,1.20
2018-12-01T01:43:13.882Z,1.80
2018-12-01T01:44:13.841Z,1.70
2018-12-01T01:45:13.812Z,2.00
2018-12-01T01:46:13.777Z,1.40
2018-12-01T01:47:13.766Z,1.50
2018-12-01T01:48:13.710Z,1.60
2018-12-01T01:49:13.705Z,1.60
2018-12-01T01:50:13.654Z,1.20
2018-12-01T01:51:13.627Z,1.70
2018-12-01T01:52:13.592Z,1.80
2018-12-01T01:53:13.569Z,1.60
2018-12-01T01:54:13.542Z,1.40
2018-12-01T01:55:13.517Z,1.30
2018-12-01T01:56:13.917Z,1.70
2018-12-01T01:57:13.464Z,1.50
2018-12-01T01:58:13.420Z,1.40
2018-12-01T01:59:13.370Z,1.20
2018-12-01T02:00:13.331Z,1.60
2018-12-01T02:01:13.299Z,1.80
2018-12-01T02:02:13.523Z,1.30
2018-12-01T02:03:13.238Z,1.30
2018-12-01T02:04:13.268Z,2.00
2018-12-01T02:05:13.193Z,1.40
2018-12-01T02:06:13.163Z,1.40
2018-12-01T02:07:13.107Z,1.40
2018-12-01T02:08:13.085Z,1.30
2018-12-01T02:09:13.044Z,1.70
2018-12-01T02:10:13.013Z,1.20
2018-12-01T02:11:12.980Z,1.40
2018-12-01T02:12:12.947Z,1.90
2018-12-01T02:13:12.913Z,2.10
2018-12-01T02:14:12.886Z,1.30
2018-12-01T02:15:12.862Z,1.20
2018-12-01T02:16:12.820Z,1.30
2018-12-01T02:17:12.793Z,1.80
2018-12-01T02:18:12.753Z,1.40
2018-12-01T02:19:12.729Z,1.60
2018-12-01T02:20:12.698Z,1.40
2018-12-01T02:21:12.660Z,1.70
2018-12-01T02:22:12.626Z,1.00
2018-12-01T02:23:12.606Z,1.20
2018-12-01T02:24:12.586Z,1.20
2018-12-01T02:25:12.534Z,1.70
2018-12-01T02:26:12.496Z,1.30
2018-12-01T02:27:12.470Z,2.00
2018-12-01T02:28:12.642Z,1.70
2018-12-01T02:29:12.405Z,1.60
2018-12-01T02:30:12.371Z,1.20
2018-12-01T02:31:12.343Z,1.40
2018-12-01T02:32:12.318Z,1.40
2018-12-01T02:33:12.283Z,1.30
2018-12-01T02:34:12.656Z,1.20
2018-12-01T02:35:12.231Z,1.20
2018-12-01T02:36:12.185Z,1.20
2018-12-01T02:37:12.152Z,1.50
2018-12-01T02:38:12.114Z,1.10
2018-12-01T02:39:12.088Z,1.40
2018-12-01T02:40:12.389Z,1.20
2018-12-01T02:41:12.026Z,1.80
2018-12-01T02:42:11.995Z,1.30
2018-12-01T02:43:11.977Z,1.20
2018-12-01T02:44:11.920Z,1.60
2018-12-01T02:46:11.880Z,0.70
2018-12-01T02:47:11.834Z,1.50
2018-12-01T02:48:11.793Z,1.30
2018-12-01T02:49:11.802Z,1.40
2018-12-01T02:50:11.734Z,1.40
2018-12-01T02:51:11.722Z,1.60
2018-12-01T02:52:11.666Z,1.50
2018-12-01T02:53:11.646Z,1.50
2018-12-01T02:54:11.607Z,1.00
2018-12-01T02:55:11.599Z,2.00
2018-12-01T02:56:11.948Z,1.80
2018-12-01T02:57:11.500Z,1.40
2018-12-01T02:58:11.477Z,1.30
2018-12-01T02:59:11.436Z,1.30
2018-12-01T03:00:11.403Z,1.60
2018-12-01T03:01:11.382Z,1.50
2018-12-01T03:02:11.544Z,1.20
2018-12-01T03:03:11.309Z,1.30
2018-12-01T03:04:11.280Z,1.80
2018-12-01T03:05:11.251Z,1.50
2018-12-01T03:06:11.220Z,1.20
2018-12-01T03:07:11.180Z,1.30
2018-12-01T03:08:11.152Z,1.40
2018-12-01T03:09:11.142Z,1.30
2018-12-01T03:10:11.098Z,1.30
2018-12-01T03:11:11.052Z,1.20
2018-12-01T03:12:11.022Z,1.70
2018-12-01T03:13:11.047Z,1.60
2018-12-01T03:14:10.954Z,1.10
2018-12-01T03:15:10.924Z,1.30
2018-12-01T03:16:10.924Z,1.50
2018-12-01T03:17:10.865Z,1.30
2018-12-01T03:18:13.591Z,1.40
2018-12-01T03:19:10.796Z,1.10
2018-12-01T03:20:10.766Z,1.90
2018-12-01T03:21:10.780Z,1.70
2018-12-01T03:22:10.700Z,1.40
2018-12-01T03:23:10.672Z,1.60
2018-12-01T03:24:10.638Z,1.30
2018-12-01T03:25:10.605Z,1.30
2018-12-01T03:26:10.577Z,1.30
2018-12-01T03:27:10.539Z,1.20
2018-12-01T03:28:10.710Z,1.20
2018-12-01T03:29:10.484Z,1.30
2018-12-01T03:30:10.474Z,1.50
2018-12-01T03:31:10.418Z,1.20
2018-12-01T03:32:10.388Z,1.50
2018-12-01T03:33:10.355Z,1.50
2018-12-01T03:34:10.742Z,1.90
2018-12-01T03:35:10.292Z,1.60
2018-12-01T03:36:10.259Z,1.30
2018-12-01T03:37:10.224Z,1.60
2018-12-01T03:38:10.201Z,1.30
2018-12-01T03:39:10.154Z,1.50
2018-12-01T03:40:10.316Z,1.30
2018-12-01T03:41:10.104Z,1.10
2018-12-01T03:42:10.055Z,1.70
2018-12-01T03:43:10.019Z,1.20
2018-12-01T03:44:09.996Z,1.40
2018-12-01T03:45:10.024Z,1.70
2018-12-01T03:46:09.977Z,1.60
2018-12-01T03:47:09.920Z,1.50
2018-12-01T03:48:09.858Z,1.70
2018-12-01T03:49:09.829Z,2.30
2018-12-01T03:50:09.817Z,1.70
2018-12-01T03:51:09.781Z,1.60
2018-12-01T03:52:09.732Z,1.20
2018-12-01T03:53:09.703Z,1.30
2018-12-01T03:54:09.669Z,1.40
2018-12-01T03:55:09.640Z,1.50
2018-12-01T03:56:10.036Z,1.70
2018-12-01T03:57:09.600Z,1.40
2018-12-01T03:58:09.554Z,1.70
2018-12-01T03:59:09.531Z,1.30
2018-12-01T04:00:09.482Z,1.10
2018-12-01T04:01:09.442Z,1.40
2018-12-01T04:02:09.610Z,1.80
2018-12-01T04:03:09.379Z,1.30
2018-12-01T04:04:10.170Z,1.10
2018-12-01T04:05:09.311Z,2.00
2018-12-01T04:06:09.295Z,2.20
2018-12-01T04:07:09.248Z,1.60
2018-12-01T04:08:09.226Z,1.20
2018-12-01T04:09:09.189Z,1.20
2018-12-01T04:10:09.152Z,1.40
2018-12-01T04:11:09.121Z,1.80
2018-12-01T04:12:09.124Z,1.30
2018-12-01T04:13:09.063Z,1.30
2018-12-01T04:14:09.026Z,1.30
2018-12-01T04:15:09.003Z,1.40
2018-12-01T04:16:08.957Z,1.40
2018-12-01T04:17:08.924Z,1.30
2018-12-01T04:19:08.866Z,0.50
2018-12-01T04:20:08.832Z,1.40
2018-12-01T04:21:08.818Z,1.20
2018-12-01T04:22:08.789Z,1.40
2018-12-01T04:23:08.795Z,1.70
2018-12-01T04:24:08.699Z,1.60
2018-12-01T04:25:08.675Z,1.40
2018-12-01T04:26:08.639Z,1.30
2018-12-01T04:27:08.613Z,1.10
2018-12-01T04:28:08.880Z,1.50
2018-12-01T04:29:08.566Z,1.20
2018-12-01T04:30:08.513Z,1.30
2018-12-01T04:31:08.480Z,1.20
2018-12-01T04:32:08.447Z,1.40
2018-12-01T04:33:08.615Z,1.30
2018-12-01T04:34:08.580Z,1.10
2018-12-01T04:35:08.344Z,1.40
2018-12-01T04:36:08.313Z,1.30
2018-12-01T04:37:08.285Z,1.30
2018-12-01T04:38:08.253Z,1.00
2018-12-01T04:39:08.233Z,1.70
2018-12-01T04:40:08.182Z,1.50
2018-12-01T04:41:08.158Z,1.20
2018-12-01T04:42:08.124Z,1.20
2018-12-01T04:43:08.119Z,1.50
2018-12-01T04:44:08.054Z,1.40
2018-12-01T04:45:08.101Z,1.20
2018-12-01T04:46:07.989Z,1.10
2018-12-01T04:47:07.964Z,1.20
2018-12-01T04:48:07.933Z,1.30
2018-12-01T04:49:07.902Z,1.60
2018-12-01T04:50:07.875Z,1.30
2018-12-01T04:51:07.841Z,1.40
2018-12-01T04:52:07.805Z,1.60
2018-12-01T04:53:07.774Z,1.40
2018-12-01T04:54:07.745Z,1.10
2018-12-01T04:55:07.702Z,1.70
2018-12-01T04:56:07.672Z,1.20
2018-12-01T04:57:07.643Z,1.20
2018-12-01T04:58:07.604Z,1.40
2018-12-01T04:59:07.570Z,1.40
2018-12-01T05:00:07.735Z,1.20
2018-12-01T05:01:07.502Z,1.30
2018-12-01T05:02:07.484Z,1.80
2018-12-01T05:03:07.446Z,1.20
2018-12-01T05:04:07.423Z,1.20
2018-12-01T05:05:07.412Z,1.60
2018-12-01T05:06:07.557Z,1.60
2018-12-01T05:07:07.323Z,1.50
2018-12-01T05:08:07.292Z,1.20
2018-12-01T05:09:07.249Z,1.10
2018-12-01T05:10:07.220Z,1.50
2018-12-01T05:11:07.212Z,1.30
2018-12-01T05:12:07.181Z,1.00
2018-12-01T05:13:07.152Z,1.10
2018-12-01T05:14:07.125Z,1.40
2018-12-01T05:15:07.116Z,1.30
2018-12-01T05:16:07.056Z,1.40
2018-12-01T05:17:07.026Z,1.30
2018-12-01T05:18:06.986Z,1.50
2018-12-01T05:19:06.955Z,1.30
2018-12-01T05:20:06.928Z,1.50
2018-12-01T05:21:06.904Z,1.20
2018-12-01T05:22:06.867Z,1.20
2018-12-01T05:23:06.836Z,1.50
2018-12-01T05:24:06.796Z,1.30
2018-12-01T05:25:06.774Z,1.30
2018-12-01T05:26:06.730Z,1.10
2018-12-01T05:27:06.707Z,1.60
2018-12-01T05:28:06.669Z,1.50
2018-12-01T05:29:06.634Z,1.20
2018-12-01T05:30:06.601Z,1.70
2018-12-01T05:31:06.573Z,1.30
2018-12-01T05:32:06.935Z,1.30
2018-12-01T05:33:06.509Z,1.60
2018-12-01T05:34:06.484Z,1.20
2018-12-01T05:35:06.460Z,1.20
2018-12-01T05:36:06.415Z,1.20
2018-12-01T05:37:06.382Z,1.20
2018-12-01T05:38:06.347Z,1.10
2018-12-01T05:39:06.315Z,1.30
2018-12-01T05:40:06.289Z,1.20
2018-12-01T05:41:06.244Z,1.30
2018-12-01T05:42:06.220Z,1.50
2018-12-01T05:43:06.182Z,1.20
2018-12-01T05:44:06.148Z,1.80
2018-12-01T05:45:06.117Z,1.40
2018-12-01T05:46:06.082Z,1.00
2018-12-01T05:47:06.056Z,1.10
2018-12-01T05:48:06.023Z,1.10
2018-12-01T05:49:05.992Z,1.30
2018-12-01T05:50:05.961Z,1.30
2018-12-01T05:51:05.925Z,1.00
2018-12-01T05:52:05.890Z,1.40
2018-12-01T05:54:05.825Z,0.90
2018-12-01T05:55:05.792Z,1.90
2018-12-01T05:56:05.825Z,1.30
2018-12-01T05:57:05.727Z,1.60
2018-12-01T05:58:05.704Z,1.60
2018-12-01T05:59:05.885Z,1.50
2018-12-01T06:00:05.631Z,1.10
2018-12-01T06:01:05.600Z,1.20
2018-12-01T06:02:05.575Z,1.30
2018-12-01T06:03:05.541Z,1.10
2018-12-01T06:04:05.508Z,1.30
2018-12-01T06:05:05.477Z,1.30
2018-12-01T06:06:05.492Z,1.50
2018-12-01T06:07:05.415Z,1.30
2018-12-01T06:08:05.377Z,1.20
2018-12-01T06:09:05.342Z,1.70
2018-12-01T06:10:05.314Z,1.30
2018-12-01T06:11:05.277Z,1.40
2018-12-01T06:12:05.265Z,1.30
2018-12-01T06:13:05.222Z,1.10
2018-12-01T06:14:05.181Z,1.80
2018-12-01T06:15:05.167Z,1.30
2018-12-01T06:16:05.127Z,1.40
2018-12-01T06:17:05.084Z,1.20
2018-12-01T06:18:05.066Z,1.60
2018-12-01T06:19:05.026Z,1.40
2018-12-01T06:20:04.997Z,1.30
2018-12-01T06:21:05.008Z,1.20
2018-12-01T06:22:04.953Z,1.40
2018-12-01T06:23:04.888Z,1.50
2018-12-01T06:24:04.852Z,1.20
2018-12-01T06:25:04.836Z,1.10
2018-12-01T06:26:04.800Z,1.30
2018-12-01T06:27:04.766Z,1.40
2018-12-01T06:28:04.731Z,1.80
2018-12-01T06:29:04.692Z,1.40
2018-12-01T06:30:04.669Z,1.20
2018-12-01T06:31:04.831Z,1.20
2018-12-01T06:32:04.594Z,1.80
2018-12-01T06:33:04.610Z,1.60
2018-12-01T06:34:04.538Z,1.50
2018-12-01T06:35:04.505Z,1.70
2018-12-01T06:36:04.463Z,1.30
2018-12-01T06:37:04.642Z,1.50
2018-12-01T06:38:04.401Z,1.30
2018-12-01T06:39:04.380Z,1.50
2018-12-01T06:40:04.340Z,1.80
2018-12-01T06:41:04.320Z,1.70
2018-12-01T06:42:04.277Z,1.10
2018-12-01T06:43:04.243Z,1.50
2018-12-01T06:44:04.209Z,1.60
2018-12-01T06:45:04.173Z,1.30
2018-12-01T06:46:04.165Z,1.20
2018-12-01T06:47:04.117Z,1.20
2018-12-01T06:48:04.078Z,1.70
2018-12-01T06:49:04.043Z,1.40
2018-12-01T06:50:04.038Z,1.30
2018-12-01T06:51:03.995Z,1.10
2018-12-01T06:52:03.965Z,1.40
2018-12-01T06:53:03.923Z,1.70
2018-12-01T06:54:03.914Z,1.30
2018-12-01T06:55:03.854Z,1.00
2018-12-01T06:56:03.828Z,1.40
2018-12-01T06:57:03.796Z,1.30
2018-12-01T06:58:03.755Z,1.50
2018-12-01T06:59:03.728Z,1.20
2018-12-01T07:00:03.689Z,1.40
2018-12-01T07:01:03.687Z,1.70
2018-12-01T07:02:03.625Z,1.60
2018-12-01T07:03:03.790Z,1.40
2018-12-01T07:04:03.567Z,1.20
2018-12-01T07:05:03.532Z,1.50
2018-12-01T07:06:03.500Z,1.60
2018-12-01T07:07:03.464Z,1.40
2018-12-01T07:08:03.442Z,1.70
2018-12-01T07:09:03.600Z,1.30
2018-12-01T07:10:03.366Z,1.20
2018-12-01T07:11:03.303Z,1.50
2018-12-01T07:12:03.288Z,1.20
2018-12-01T07:13:03.248Z,1.40
2018-12-01T07:14:03.215Z,1.70
2018-12-01T07:15:03.176Z,1.20
2018-12-01T07:16:03.173Z,1.40
2018-12-01T07:17:03.113Z,1.60
2018-12-01T07:18:03.081Z,1.50
2018-12-01T07:19:03.066Z,1.50
2018-12-01T07:20:03.013Z,0.90
2018-12-01T07:21:02.976Z,1.60
2018-12-01T07:22:02.948Z,1.40
2018-12-01T07:23:02.912Z,1.50
2018-12-01T07:24:02.875Z,1.10
2018-12-01T07:25:02.847Z,1.30
2018-12-01T07:26:02.817Z,1.40
2018-12-01T07:27:02.781Z,1.80
2018-12-01T07:28:02.766Z,1.20
2018-12-01T07:29:02.717Z,1.30
2018-12-01T07:30:02.789Z,1.50
2018-12-01T07:31:02.652Z,2.00
2018-12-01T07:32:02.627Z,1.30
2018-12-01T07:33:02.596Z,1.20
2018-12-01T07:34:02.551Z,1.70
2018-12-01T07:35:02.519Z,1.40
2018-12-01T07:36:02.504Z,1.20
2018-12-01T07:37:02.466Z,1.30
2018-12-01T07:38:02.426Z,1.60
2018-12-01T07:39:02.393Z,1.50
2018-12-01T07:40:02.356Z,1.30
2018-12-01T07:41:02.329Z,1.50
2018-12-01T07:42:02.296Z,1.70
2018-12-01T07:43:02.271Z,1.30
2018-12-01T07:44:02.229Z,1.50
2018-12-01T07:45:02.196Z,1.20
2018-12-01T07:46:02.170Z,1.30
2018-12-01T07:47:02.160Z,1.50
2018-12-01T07:48:02.106Z,1.30
2018-12-01T07:49:02.072Z,1.30
2018-12-01T07:50:02.031Z,1.40
2018-12-01T07:51:02.016Z,1.70
2018-12-01T07:52:01.974Z,1.70
2018-12-01T07:53:01.938Z,1.30
2018-12-01T07:54:01.916Z,1.10
2018-12-01T07:55:01.873Z,1.50
2018-12-01T07:56:01.845Z,1.30
2018-12-01T07:57:01.814Z,1.10
2018-12-01T07:58:01.787Z,1.30
2018-12-01T07:59:01.745Z,1.40
2018-12-01T08:00:01.717Z,1.70
2018-12-01T08:01:01.695Z,1.30
2018-12-01T08:02:02.053Z,1.40
2018-12-01T08:03:01.614Z,1.20
2018-12-01T08:04:01.585Z,1.40
2018-12-01T08:05:01.551Z,1.30
2018-12-01T08:06:01.530Z,1.50
2018-12-01T08:07:01.484Z,1.40
2018-12-01T08:08:01.774Z,1.30
2018-12-01T08:09:01.426Z,1.60
2018-12-01T08:10:01.397Z,1.30
2018-12-01T08:11:01.357Z,1.50
2018-12-01T08:12:01.333Z,1.40
2018-12-01T08:13:01.291Z,1.70
2018-12-01T08:15:01.232Z,0.70
2018-12-01T08:16:01.193Z,1.60
2018-12-01T08:17:01.163Z,1.50
2018-12-01T08:18:01.136Z,1.30
2018-12-01T08:19:01.098Z,1.20
2018-12-01T08:20:01.065Z,1.60
2018-12-01T08:21:01.026Z,2.00
2018-12-01T08:22:00.999Z,1.90
2018-12-01T08:23:00.970Z,1.60
2018-12-01T08:24:00.940Z,1.40
2018-12-01T08:25:00.903Z,1.30
2018-12-01T08:26:00.875Z,1.40
2018-12-01T08:27:00.848Z,1.30
2018-12-01T08:28:00.802Z,1.20
2018-12-01T08:29:00.772Z,1.40
2018-12-01T08:30:00.947Z,1.40
2018-12-01T08:31:00.729Z,1.40
2018-12-01T08:32:00.668Z,1.30
2018-12-01T08:33:00.649Z,1.40
2018-12-01T08:34:00.612Z,1.60
2018-12-01T08:35:00.580Z,1.70
2018-12-01T08:36:00.750Z,1.10
2018-12-01T08:37:00.515Z,1.50
2018-12-01T08:38:00.478Z,1.30
2018-12-01T08:39:00.447Z,1.50
2018-12-01T08:40:00.421Z,1.20
2018-12-01T08:41:00.394Z,1.40
2018-12-01T08:42:00.352Z,1.90
2018-12-01T08:43:00.334Z,1.30
2018-12-01T08:44:00.316Z,1.30
2018-12-01T08:45:00.266Z,1.40
2018-12-01T08:46:00.215Z,1.60
2018-12-01T08:48:00.175Z,0.60
2018-12-01T08:49:00.131Z,1.30
2018-12-01T08:50:00.115Z,1.40
2018-12-01T08:51:00.050Z,1.50
2018-12-01T08:52:00.021Z,1.50
2018-12-01T08:53:00.010Z,1.60
2018-12-01T08:54:00.001Z,1.80
2018-12-01T08:54:59.939Z,1.40
2018-12-01T08:55:59.892Z,1.40
2018-12-01T08:56:59.927Z,1.30
2018-12-01T08:57:59.848Z,1.50
2018-12-01T08:58:59.817Z,1.50
2018-12-01T08:59:59.774Z,1.80
2018-12-01T09:00:59.723Z,1.70
2018-12-01T09:01:59.697Z,1.50
2018-12-01T09:02:59.668Z,1.70
2018-12-01T09:03:59.650Z,1.70
2018-12-01T09:04:59.610Z,1.20
2018-12-01T09:05:59.588Z,1.20
2018-12-01T09:07:59.513Z,0.50
2018-12-01T09:08:59.487Z,1.80
2018-12-01T09:09:59.469Z,1.40
2018-12-01T09:10:59.415Z,1.40
2018-12-01T09:11:59.378Z,1.80
2018-12-01T09:13:59.344Z,0.70
2018-12-01T09:14:59.282Z,1.50
2018-12-01T09:15:59.265Z,1.50
2018-12-01T09:17:59.193Z,0.60
2018-12-01T09:18:59.158Z,1.50
2018-12-01T09:19:59.146Z,1.90
2018-12-01T09:20:59.309Z,1.40
2018-12-01T09:21:59.063Z,1.90
2018-12-01T09:22:59.024Z,1.50
2018-12-01T09:23:58.987Z,1.30
2018-12-01T09:24:58.958Z,1.60
2018-12-01T09:25:58.925Z,1.40
2018-12-01T09:26:58.905Z,1.20
2018-12-01T09:27:58.876Z,1.40
2018-12-01T09:28:58.837Z,1.30
2018-12-01T09:29:58.803Z,1.80
2018-12-01T09:30:58.791Z,1.20
2018-12-01T09:31:58.733Z,1.50
2018-12-01T09:32:59.111Z,1.60
2018-12-01T09:33:58.663Z,1.50
2018-12-01T09:34:58.632Z,1.30
2018-12-01T09:35:58.619Z,1.40
2018-12-01T09:36:58.577Z,1.90
2018-12-01T09:37:58.537Z,1.70
2018-12-01T09:39:58.483Z,0.80
2018-12-01T09:40:58.445Z,1.80
2018-12-01T09:41:58.410Z,1.60
2018-12-01T09:42:58.385Z,1.50
2018-12-01T09:43:58.336Z,1.50
2018-12-01T09:44:58.323Z,1.50
2018-12-01T09:45:58.275Z,1.80
2018-12-01T09:46:58.249Z,1.50
2018-12-01T09:47:58.200Z,1.40
2018-12-01T09:48:58.190Z,1.70
2018-12-01T09:49:58.137Z,1.80
2018-12-01T09:50:58.111Z,1.70
2018-12-01T09:51:58.073Z,1.30
2018-12-01T09:52:58.063Z,1.20
2018-12-01T09:53:58.054Z,1.60
2018-12-01T09:54:57.990Z,1.50
2018-12-01T09:55:57.963Z,1.30
2018-12-01T09:56:57.934Z,1.40
2018-12-01T09:57:57.877Z,1.60
2018-12-01T09:58:57.861Z,1.90
2018-12-01T09:59:57.842Z,1.40
2018-12-01T10:00:57.796Z,1.50
2018-12-01T10:01:57.748Z,1.30
2018-12-01T10:02:57.745Z,1.70
2018-12-01T10:03:57.698Z,1.70
2018-12-01T10:04:57.668Z,1.30
2018-12-01T10:05:57.624Z,1.20
2018-12-01T10:06:57.591Z,2.00
2018-12-01T10:07:57.565Z,1.90
2018-12-01T10:08:57.524Z,1.50
2018-12-01T10:09:57.495Z,1.50
2018-12-01T10:10:57.462Z,1.40
2018-12-01T10:11:57.434Z,1.60
2018-12-01T10:12:57.424Z,1.70
2018-12-01T10:13:57.360Z,1.40
2018-12-01T10:14:57.345Z,1.60
2018-12-01T10:15:57.310Z,1.80
2018-12-01T10:16:57.278Z,1.70
2018-12-01T10:17:57.250Z,1.30
2018-12-01T10:18:57.200Z,1.40
2018-12-01T10:19:57.168Z,1.60
2018-12-01T10:20:57.143Z,1.50
2018-12-01T10:21:57.109Z,1.30
2018-12-01T10:22:57.104Z,1.40
2018-12-01T10:23:57.039Z,1.40
2018-12-01T10:24:57.018Z,1.80
2018-12-01T10:25:56.972Z,1.50
2018-12-01T10:26:56.947Z,1.40
2018-12-01T10:27:56.920Z,1.70
2018-12-01T10:28:56.893Z,1.60
2018-12-01T10:29:56.882Z,1.40
2018-12-01T10:30:57.286Z,1.40
2018-12-01T10:31:56.790Z,1.40
2018-12-01T10:32:56.754Z,1.50
2018-12-01T10:33:56.720Z,1.80
2018-12-01T10:34:56.690Z,1.40
2018-12-01T10:35:56.661Z,1.60
2018-12-01T10:36:56.822Z,2.00
2018-12-01T10:37:56.589Z,2.10
2018-12-01T10:38:56.555Z,1.30
2018-12-01T10:39:56.524Z,1.70
2018-12-01T10:40:56.524Z,1.70
2018-12-01T10:41:56.460Z,2.00
2018-12-01T10:42:56.435Z,1.70
2018-12-01T10:43:56.394Z,2.00
2018-12-01T10:44:56.368Z,2.40
2018-12-01T10:45:56.342Z,1.90
2018-12-01T10:46:56.305Z,3.90
2018-12-01T10:47:56.263Z,2.10
2018-12-01T10:48:56.240Z,2.10
2018-12-01T10:49:56.211Z,1.80
2018-12-01T10:50:57.418Z,1.60
2018-12-01T10:51:56.146Z,1.60
2018-12-01T10:52:56.122Z,2.10
2018-12-01T10:53:56.159Z,2.10
2018-12-01T10:54:56.046Z,1.60
2018-12-01T10:55:56.042Z,1.50
2018-12-01T10:56:56.024Z,1.90
2018-12-01T10:57:55.960Z,1.50
2018-12-01T10:58:57.156Z,1.40
2018-12-01T10:59:55.911Z,1.80
2018-12-01T11:00:56.072Z,1.70
2018-12-01T11:01:55.823Z,1.70
2018-12-01T11:02:55.846Z,2.00
2018-12-01T11:03:55.769Z,2.90
2018-12-01T11:04:55.731Z,4.30
2018-12-01T11:05:55.703Z,7.90
2018-12-01T11:06:55.673Z,15.30
2018-12-01T11:07:55.665Z,10.60
2018-12-01T11:08:55.596Z,11.20
2018-12-01T11:09:55.586Z,11.60
2018-12-01T11:10:55.585Z,10.50
2018-12-01T11:11:55.567Z,8.80
2018-12-01T11:13:55.462Z,6.40
2018-12-01T11:14:55.423Z,6.90
2018-12-01T11:15:55.372Z,5.30
2018-12-01T11:16:55.357Z,5.70
2018-12-01T11:17:55.329Z,4.80
2018-12-01T11:18:55.276Z,4.70
2018-12-01T11:19:55.241Z,3.30
2018-12-01T11:20:55.211Z,3.40
2018-12-01T11:21:55.197Z,3.10
2018-12-01T11:22:57.944Z,2.80
2018-12-01T11:23:55.152Z,2.80
2018-12-01T11:24:55.111Z,2.80
2018-12-01T11:25:55.070Z,3.00
2018-12-01T11:26:55.036Z,3.00
2018-12-01T11:27:54.993Z,1.80
2018-12-01T11:28:54.977Z,2.10
2018-12-01T11:29:54.949Z,2.30
2018-12-01T11:30:54.894Z,2.10
2018-12-01T11:31:54.956Z,1.80
2018-12-01T11:32:54.848Z,2.10
2018-12-01T11:33:54.829Z,2.40
2018-12-01T11:34:55.003Z,2.00
2018-12-01T11:35:54.774Z,2.00
2018-12-01T11:36:54.735Z,2.30
2018-12-01T11:37:54.705Z,2.40
2018-12-01T11:38:54.679Z,1.80
2018-12-01T11:39:54.659Z,1.80
2018-12-01T11:40:54.695Z,2.20
2018-12-01T11:41:54.566Z,2.00
2018-12-01T11:42:54.536Z,1.60
2018-12-01T11:43:54.483Z,1.70
2018-12-01T11:44:56.908Z,1.50
2018-12-01T11:45:54.428Z,2.10
2018-12-01T11:46:54.402Z,1.60
2018-12-01T11:47:54.389Z,1.90
2018-12-01T11:48:54.357Z,2.10
2018-12-01T11:49:54.300Z,1.40
2018-12-01T11:50:54.287Z,1.80
2018-12-01T11:51:54.236Z,1.80
2018-12-01T11:52:54.199Z,1.70
2018-12-01T11:53:54.244Z,1.70
2018-12-01T11:54:54.151Z,1.50
2018-12-01T11:55:54.336Z,1.60
2018-12-01T11:56:54.081Z,1.40
2018-12-01T11:57:55.273Z,1.90
2018-12-01T11:58:54.018Z,1.60
2018-12-01T11:59:54.009Z,1.60
2018-12-01T12:00:54.238Z,2.10
2018-12-01T12:01:53.965Z,1.90
2018-12-01T12:02:53.893Z,1.60
2018-12-01T12:03:53.922Z,2.00
2018-12-01T12:04:53.831Z,1.40
2018-12-01T12:05:53.819Z,1.60
2018-12-01T12:06:54.041Z,1.60
2018-12-01T12:07:53.759Z,1.30
2018-12-01T12:08:53.698Z,1.90
2018-12-01T12:09:53.885Z,1.20
2018-12-01T12:10:53.635Z,1.50
2018-12-01T12:11:53.607Z,1.80
2018-12-01T12:12:53.783Z,1.30
2018-12-01T12:13:53.545Z,1.70
2018-12-01T12:14:53.517Z,1.40
2018-12-01T12:15:53.505Z,1.60
2018-12-01T12:16:53.472Z,1.50
2018-12-01T12:17:53.419Z,1.20
2018-12-01T12:18:53.444Z,1.30
2018-12-01T12:19:53.376Z,1.60
2018-12-01T12:20:53.322Z,1.30
2018-12-01T12:21:53.305Z,1.20
2018-12-01T12:22:53.301Z,1.30
2018-12-01T12:23:53.237Z,1.40
2018-12-01T12:24:53.203Z,1.10
2018-12-01T12:25:53.166Z,1.00
2018-12-01T12:26:53.168Z,1.60
2018-12-01T12:27:53.111Z,1.20
2018-12-01T12:28:53.113Z,1.10
2018-12-01T12:29:53.106Z,1.00
2018-12-01T12:30:53.037Z,1.30
2018-12-01T12:31:53.023Z,1.40
2018-12-01T12:32:52.954Z,1.10
2018-12-01T12:33:52.929Z,1.00
2018-12-01T12:34:52.898Z,1.30
2018-12-01T12:35:52.855Z,1.70
2018-12-01T12:36:52.825Z,1.40
2018-12-01T12:37:52.826Z,1.40
2018-12-01T12:38:52.768Z,1.10
2018-12-01T12:39:52.735Z,1.10
2018-12-01T12:40:52.718Z,1.10
2018-12-01T12:41:52.683Z,1.20
2018-12-01T12:42:52.646Z,1.30
2018-12-01T12:43:52.616Z,1.30
2018-12-01T12:44:52.588Z,1.00
2018-12-01T12:45:52.554Z,1.10
2018-12-01T12:46:52.509Z,1.30
2018-12-01T12:47:52.485Z,1.10
2018-12-01T12:48:52.465Z,1.00
2018-12-01T12:49:52.444Z,1.20
2018-12-01T12:50:53.209Z,1.70
2018-12-01T12:51:52.355Z,1.00
2018-12-01T12:52:52.355Z,1.20
2018-12-01T12:53:52.314Z,1.20
2018-12-01T12:54:52.282Z,1.50
2018-12-01T12:55:52.239Z,1.40
2018-12-01T12:56:52.221Z,1.20
2018-12-01T12:57:52.187Z,1.50
2018-12-01T12:58:52.203Z,1.00
2018-12-01T12:59:52.108Z,1.50
2018-12-01T13:00:52.084Z,1.30
2018-12-01T13:01:52.048Z,1.10
2018-12-01T13:02:52.053Z,1.40
2018-12-01T13:03:51.995Z,1.10
2018-12-01T13:04:52.009Z,1.20
2018-12-01T13:05:51.928Z,1.10
2018-12-01T13:06:51.910Z,1.20
2018-12-01T13:07:51.896Z,1.10
2018-12-01T13:08:51.849Z,1.20
2018-12-01T13:09:52.224Z,1.30
2018-12-01T13:10:51.776Z,1.60
2018-12-01T13:11:51.750Z,1.20
2018-12-01T13:12:51.878Z,1.30
2018-12-01T13:13:51.693Z,1.20
2018-12-01T13:14:51.690Z,1.20
2018-12-01T13:15:51.620Z,1.10
2018-12-01T13:16:51.592Z,1.10
2018-12-01T13:17:51.574Z,1.00
2018-12-01T13:18:51.522Z,1.20
2018-12-01T13:19:51.516Z,1.20
2018-12-01T13:20:51.465Z,1.70
2018-12-01T13:21:51.455Z,1.30
2018-12-01T13:22:51.426Z,1.20
2018-12-01T13:23:51.380Z,1.40
2018-12-01T13:24:51.340Z,1.20
2018-12-01T13:25:51.312Z,1.30
2018-12-01T13:27:51.255Z,1.00
2018-12-01T13:28:51.236Z,1.10
2018-12-01T13:29:51.187Z,1.00
2018-12-01T13:30:51.165Z,1.60